createdAt,value
2019-06-10T00:10:33.072Z,0
2019-06-10T00:13:13.383Z,0
2019-06-10T00:22:31.621Z,0
2019-06-10T00:25:12.058Z,0
2019-06-10T00:26:12.378Z,0
2019-06-10T00:27:11.455Z,0
2019-06-10T00:28:07.752Z,0
2019-06-10T00:31:31.215Z,0
2019-06-10T00:32:28.738Z,0
2019-06-10T00:33:27.282Z,0
2019-06-10T00:34:25.871Z,0
2019-06-10T00:35:24.396Z,0
2019-06-10T00:36:23.009Z,0
2019-06-10T00:37:21.546Z,0
2019-06-10T00:38:21.365Z,0
2019-06-10T00:39:18.591Z,0
2019-06-10T00:40:17.146Z,0
2019-06-10T00:41:15.796Z,0
2019-06-10T00:42:15.272Z,0
2019-06-10T00:43:13.624Z,0
2019-06-10T00:44:12.723Z,0
2019-06-10T00:45:16.916Z,0
2019-06-10T00:46:09.378Z,0
2019-06-10T00:47:09.098Z,0
2019-06-10T00:48:15.619Z,0
2019-06-10T00:49:06.233Z,0
2019-06-10T00:50:05.466Z,0
2019-06-10T00:51:03.777Z,0
2019-06-10T00:52:01.572Z,0
2019-06-10T00:53:01.246Z,0
2019-06-10T00:53:57.444Z,0
2019-06-10T00:54:56.195Z,0
2019-06-10T00:55:54.823Z,0
2019-06-10T00:56:53.383Z,0
2019-06-10T00:57:52.160Z,0
2019-06-10T00:58:51.349Z,0
2019-06-10T00:59:50.759Z,0
2019-06-10T01:00:47.839Z,0
2019-06-10T01:01:46.375Z,0
2019-06-10T01:02:44.899Z,0
2019-06-10T01:03:43.461Z,0
2019-06-10T01:04:42.029Z,0
2019-06-10T01:05:41.997Z,0
2019-06-10T01:06:39.163Z,0
2019-06-10T01:07:37.772Z,0
2019-06-10T01:08:36.445Z,0
2019-06-10T01:09:35.022Z,0
2019-06-10T01:10:33.646Z,0
2019-06-10T01:11:32.377Z,0
2019-06-10T01:12:31.597Z,0
2019-06-10T01:13:30.905Z,0
2019-06-10T01:14:28.075Z,0
2019-06-10T01:15:26.625Z,0
2019-06-10T01:16:25.401Z,0
2019-06-10T01:17:24.199Z,0
2019-06-10T01:18:34.395Z,0
2019-06-10T01:19:21.953Z,0
2019-06-10T01:20:21.022Z,0
2019-06-10T01:21:18.705Z,0
2019-06-10T01:22:17.422Z,0
2019-06-10T01:23:15.834Z,0
2019-06-10T01:24:14.808Z,0
2019-06-10T01:25:14.691Z,0
2019-06-10T01:26:12.835Z,0
2019-06-10T01:27:11.693Z,0
2019-06-10T01:28:12.081Z,0
2019-06-10T01:29:07.641Z,0
2019-06-10T01:30:12.273Z,0
2019-06-10T01:31:07.747Z,0
2019-06-10T01:32:03.206Z,0
2019-06-10T01:33:01.774Z,0
2019-06-10T01:34:00.772Z,0
2019-06-10T01:35:01.103Z,0
2019-06-10T01:35:57.664Z,0
2019-06-10T01:36:56.553Z,0
2019-06-10T01:37:55.173Z,0
2019-06-10T01:38:53.823Z,0
2019-06-10T01:39:52.448Z,0
2019-06-10T01:40:51.102Z,0
2019-06-10T01:41:51.169Z,0
2019-06-10T01:42:50.250Z,0
2019-06-10T01:43:46.626Z,0
2019-06-10T01:44:45.179Z,0
2019-06-10T01:45:43.861Z,0
2019-06-10T01:46:42.450Z,0
2019-06-10T01:47:41.620Z,0
2019-06-10T01:48:44.814Z,0
2019-06-10T01:49:38.346Z,0
2019-06-10T01:50:36.936Z,0
2019-06-10T01:51:35.464Z,0
2019-06-10T01:52:34.180Z,0
2019-06-10T01:53:32.734Z,0
2019-06-10T01:54:31.720Z,0
2019-06-10T01:55:31.136Z,0
2019-06-10T01:56:28.544Z,0
2019-06-10T01:57:27.114Z,0
2019-06-10T01:58:25.908Z,0
2019-06-10T01:59:24.607Z,0
2019-06-10T02:00:25.930Z,0
2019-06-10T02:01:23.337Z,0
2019-06-10T02:02:23.448Z,0
2019-06-10T02:03:20.247Z,0
2019-06-10T02:04:18.066Z,0
2019-06-10T02:05:16.621Z,0
2019-06-10T02:06:17.999Z,0
2019-06-10T02:07:15.454Z,0
2019-06-10T02:08:14.301Z,0
2019-06-10T02:09:13.378Z,0
2019-06-10T02:10:11.788Z,0
2019-06-10T02:11:07.596Z,0
2019-06-10T02:12:06.240Z,0
2019-06-10T02:13:04.797Z,0
2019-06-10T02:14:03.378Z,0
2019-06-10T02:15:02.079Z,0
2019-06-10T02:16:01.079Z,0
2019-06-10T02:17:01.193Z,0
2019-06-10T02:17:57.876Z,0
2019-06-10T02:19:00.369Z,0
2019-06-10T02:19:55.057Z,0
2019-06-10T02:20:53.774Z,0
2019-06-10T02:21:52.560Z,0
2019-06-10T02:22:51.526Z,0
2019-06-10T02:23:51.588Z,0
2019-06-10T02:24:50.522Z,0
2019-06-10T02:25:46.792Z,0
2019-06-10T02:26:45.342Z,0
2019-06-10T02:27:43.904Z,0
2019-06-10T02:28:42.482Z,0
2019-06-10T02:29:41.245Z,0
2019-06-10T02:30:49.242Z,0
2019-06-10T02:31:38.394Z,0
2019-06-10T02:32:37.847Z,0
2019-06-10T02:33:36.617Z,0
2019-06-10T02:34:42.629Z,0
2019-06-10T02:35:43.185Z,0
2019-06-10T02:36:36.332Z,0
2019-06-10T02:37:32.085Z,0
2019-06-10T02:38:35.064Z,0
2019-06-10T02:39:33.628Z,0
2019-06-10T02:40:31.962Z,0
2019-06-10T02:41:31.782Z,0
2019-06-10T02:42:30.066Z,0
2019-06-10T02:43:29.312Z,0
2019-06-10T02:44:25.965Z,0
2019-06-10T02:45:23.346Z,0
2019-06-10T02:46:19.468Z,0
2019-06-10T02:47:18.909Z,0
2019-06-10T02:48:17.602Z,0
2019-06-10T02:49:29.281Z,0
2019-06-10T02:50:14.850Z,0
2019-06-10T02:51:13.477Z,0
2019-06-10T02:52:09.188Z,0
2019-06-10T02:53:07.755Z,0
2019-06-10T02:54:06.424Z,0
2019-06-10T02:55:05.007Z,0
2019-06-10T02:56:04.134Z,0
2019-06-10T02:57:04.314Z,0
2019-06-10T02:58:03.731Z,0
2019-06-10T02:58:59.391Z,0
2019-06-10T02:59:58.036Z,0
2019-06-10T03:00:56.759Z,0
2019-06-10T03:01:55.328Z,0
2019-06-10T03:02:53.982Z,0
2019-06-10T03:03:54.195Z,0
2019-06-10T03:04:53.534Z,0
2019-06-10T03:05:53.348Z,0
2019-06-10T03:06:48.407Z,0
2019-06-10T03:07:46.965Z,0
2019-06-10T03:08:45.557Z,0
2019-06-10T03:09:44.210Z,0
2019-06-10T03:10:44.219Z,0
2019-06-10T03:11:44.452Z,0
2019-06-10T03:12:42.253Z,0
2019-06-10T03:13:38.800Z,0
2019-06-10T03:14:37.373Z,0
2019-06-10T03:15:36.006Z,0
2019-06-10T03:16:34.574Z,0
2019-06-10T03:17:33.101Z,0
2019-06-10T03:18:32.809Z,0
2019-06-10T03:19:43.855Z,0
2019-06-10T03:20:28.825Z,0
2019-06-10T03:21:28.510Z,0
2019-06-10T03:22:26.025Z,0
2019-06-10T03:23:26.093Z,0
2019-06-10T03:24:25.086Z,0
2019-06-10T03:25:23.245Z,0
2019-06-10T03:26:23.528Z,0
2019-06-10T03:27:19.040Z,0
2019-06-10T03:28:17.652Z,0
2019-06-10T03:29:16.492Z,0
2019-06-10T03:30:20.766Z,0
2019-06-10T03:31:15.483Z,0
2019-06-10T03:32:15.091Z,0
2019-06-10T03:33:13.699Z,0
2019-06-10T03:34:09.269Z,0
2019-06-10T03:35:07.987Z,0
2019-06-10T03:36:06.626Z,0
2019-06-10T03:37:05.236Z,0
2019-06-10T03:38:03.809Z,0
2019-06-10T03:39:02.706Z,0
2019-06-10T03:40:02.456Z,0
2019-06-10T03:40:59.545Z,0
2019-06-10T03:41:58.091Z,0
2019-06-10T03:42:56.645Z,0
2019-06-10T03:43:55.194Z,0
2019-06-10T03:44:53.858Z,0
2019-06-10T03:45:53.064Z,0
2019-06-10T03:46:52.319Z,0
2019-06-10T03:47:49.736Z,0
2019-06-10T03:48:48.604Z,0
2019-06-10T03:49:52.484Z,0
2019-06-10T03:50:45.782Z,0
2019-06-10T03:51:44.445Z,0
2019-06-10T03:52:43.296Z,0
2019-06-10T03:53:42.531Z,0
2019-06-10T03:54:43.073Z,0
2019-06-10T03:55:38.931Z,0
2019-06-10T03:56:37.490Z,0
2019-06-10T03:57:36.168Z,0
2019-06-10T03:58:34.809Z,5
2019-06-10T03:59:33.384Z,5
2019-06-10T04:00:32.696Z,5
2019-06-10T04:01:30.533Z,10
2019-06-10T04:03:53.431Z,15
2019-06-10T04:04:52.423Z,15
2019-06-10T04:05:52.677Z,20
2019-06-10T04:06:49.366Z,25
2019-06-10T04:20:24.993Z,65
2019-06-10T04:21:22.673Z,70
2019-06-10T04:22:22.282Z,65
2019-06-10T04:23:19.664Z,65
2019-06-10T04:24:17.652Z,60
2019-06-10T04:25:15.857Z,60
2019-06-10T04:26:14.606Z,60
2019-06-10T04:27:13.139Z,60
2019-06-10T04:28:12.482Z,55
2019-06-10T04:29:10.276Z,45
2019-06-10T04:30:08.826Z,45
2019-06-10T04:31:07.423Z,50
2019-06-10T04:32:06.003Z,60
2019-06-10T04:33:04.770Z,70
2019-06-10T04:34:03.406Z,75
2019-06-10T04:35:02.357Z,75
2019-06-10T04:36:02.807Z,70
2019-06-10T04:36:59.153Z,70
2019-06-10T04:37:57.812Z,75
2019-06-10T04:38:56.429Z,85
2019-06-10T04:39:57.478Z,90
2019-06-10T04:40:53.581Z,95
2019-06-10T04:41:53.021Z,220
2019-06-10T04:42:52.502Z,110
2019-06-10T04:43:49.171Z,95
2019-06-10T04:44:47.840Z,85
2019-06-10T04:45:46.550Z,80
2019-06-10T04:46:45.088Z,65
2019-06-10T04:47:43.647Z,60
2019-06-10T04:48:42.792Z,55
2019-06-10T04:49:42.815Z,50
2019-06-10T04:50:43.616Z,45
2019-06-10T04:51:37.962Z,45
2019-06-10T04:52:36.595Z,40
2019-06-10T04:53:35.159Z,35
2019-06-10T04:54:33.728Z,30
2019-06-10T04:55:32.663Z,30
2019-06-10T04:56:33.262Z,25
2019-06-10T04:57:29.700Z,25
2019-06-10T04:58:28.836Z,25
2019-06-10T04:59:28.514Z,25
2019-06-10T05:00:26.888Z,20
2019-06-10T05:01:25.817Z,20
2019-06-10T05:02:25.411Z,20
2019-06-10T05:03:23.480Z,25
2019-06-10T05:04:20.943Z,25
2019-06-10T05:05:18.949Z,25
2019-06-10T05:06:16.984Z,25
2019-06-10T05:07:15.526Z,30
2019-06-10T05:08:14.066Z,30
2019-06-10T05:09:12.678Z,30
2019-06-10T05:10:12.382Z,30
2019-06-10T05:11:09.890Z,25
2019-06-10T05:12:08.598Z,20
2019-06-10T05:13:07.141Z,20
2019-06-10T05:14:05.705Z,20
2019-06-10T05:15:04.523Z,20
2019-06-10T05:16:03.746Z,20
2019-06-10T05:17:02.175Z,20
2019-06-10T05:18:00.162Z,20
2019-06-10T05:18:58.721Z,25
2019-06-10T05:19:57.258Z,25
2019-06-10T05:20:58.504Z,25
2019-06-10T05:21:54.460Z,25
2019-06-10T05:22:52.994Z,30
2019-06-10T05:23:52.172Z,30
2019-06-10T05:24:52.623Z,35
2019-06-10T05:25:48.852Z,35
2019-06-10T05:26:47.408Z,40
2019-06-10T05:27:46.010Z,40
2019-06-10T05:28:44.675Z,40
2019-06-10T05:29:43.225Z,45
2019-06-10T05:30:42.596Z,45
2019-06-10T05:31:43.202Z,50
2019-06-10T05:32:38.898Z,50
2019-06-10T05:33:37.518Z,50
2019-06-10T05:34:36.219Z,55
2019-06-10T05:35:34.771Z,60
2019-06-10T05:36:34.580Z,65
2019-06-10T05:37:33.846Z,75
2019-06-10T05:38:34.864Z,95
2019-06-10T05:39:30.378Z,135
2019-06-10T05:40:27.689Z,195
2019-06-10T05:41:27.893Z,235
2019-06-10T05:42:26.389Z,235
2019-06-10T05:43:24.669Z,230
2019-06-10T05:44:24.140Z,230
2019-06-10T05:45:23.065Z,205
2019-06-10T05:46:19.373Z,195
2019-06-10T05:47:18.280Z,160
2019-06-10T05:48:16.955Z,190
2019-06-10T05:49:15.437Z,160
2019-06-10T05:50:13.986Z,145
2019-06-10T05:51:12.669Z,135
2019-06-10T05:52:12.581Z,135
2019-06-10T05:53:09.737Z,140
2019-06-10T05:54:08.272Z,150
2019-06-10T05:55:06.799Z,150
2019-06-10T05:56:05.361Z,145
2019-06-10T05:57:04.120Z,145
2019-06-10T05:58:03.190Z,160
2019-06-10T05:59:04.239Z,165
2019-06-10T06:00:00.188Z,155
2019-06-10T06:00:58.970Z,150
2019-06-10T06:01:57.373Z,135
2019-06-10T06:02:55.909Z,145
2019-06-10T06:03:54.464Z,165
2019-06-10T06:04:53.172Z,265
2019-06-10T06:05:52.467Z,215
2019-06-10T06:06:50.078Z,315
2019-06-10T06:08:01.251Z,240
2019-06-10T06:08:47.165Z,235
2019-06-10T06:09:45.867Z,130
2019-06-10T06:10:44.516Z,90
2019-06-10T06:11:43.292Z,105
2019-06-10T06:12:42.406Z,100
2019-06-10T06:13:42.964Z,100
2019-06-10T06:14:39.084Z,120
2019-06-10T06:15:38.031Z,130
2019-06-10T06:16:36.315Z,110
2019-06-10T06:17:35.446Z,90
2019-06-10T06:18:34.944Z,70
2019-06-10T06:19:33.619Z,70
2019-06-10T06:20:33.656Z,65
2019-06-10T06:21:34.405Z,60
2019-06-10T06:22:29.300Z,60
2019-06-10T06:23:26.950Z,55
2019-06-10T06:24:25.581Z,55
2019-06-10T06:25:24.294Z,45
2019-06-10T06:26:23.488Z,40
2019-06-10T06:27:22.478Z,50
2019-06-10T06:28:19.963Z,45
2019-06-10T06:29:18.913Z,55
2019-06-10T06:30:18.784Z,55
2019-06-10T06:31:16.168Z,60
2019-06-10T06:32:14.836Z,60
2019-06-10T06:33:13.859Z,60
2019-06-10T06:34:13.706Z,55
2019-06-10T06:35:12.608Z,55
2019-06-10T06:36:09.327Z,55
2019-06-10T06:37:07.847Z,55
2019-06-10T06:38:06.426Z,55
2019-06-10T06:39:04.944Z,50
2019-06-10T06:40:03.532Z,45
2019-06-10T06:41:03.144Z,45
2019-06-10T06:42:02.217Z,45
2019-06-10T06:42:59.184Z,45
2019-06-10T06:43:57.831Z,50
2019-06-10T06:44:56.579Z,50
2019-06-10T06:45:55.236Z,50
2019-06-10T06:46:53.797Z,55
2019-06-10T06:47:52.864Z,55
2019-06-10T06:48:53.187Z,55
2019-06-10T06:49:49.607Z,60
2019-06-10T06:51:01.597Z,55
2019-06-10T06:51:54.181Z,55
2019-06-10T06:53:14.295Z,55
2019-06-10T06:53:51.614Z,60
2019-06-10T06:54:42.981Z,60
2019-06-10T06:55:43.268Z,60
2019-06-10T06:56:41.014Z,60
2019-06-10T06:57:40.057Z,60
2019-06-10T06:58:38.866Z,55
2019-06-10T06:59:37.362Z,55
2019-06-10T07:00:48.732Z,55
2019-06-10T07:01:36.410Z,50
2019-06-10T07:02:34.196Z,50
2019-06-10T07:03:34.083Z,55
2019-06-10T07:04:29.638Z,55
2019-06-10T07:05:27.774Z,55
2019-06-10T07:06:26.606Z,55
2019-06-10T07:07:25.166Z,55
2019-06-10T07:08:23.783Z,55
2019-06-10T07:09:22.549Z,60
2019-06-10T07:10:22.790Z,60
2019-06-10T07:11:19.671Z,65
2019-06-10T07:12:18.338Z,65
2019-06-10T07:13:16.862Z,70
2019-06-10T07:14:15.429Z,70
2019-06-10T07:15:14.012Z,70
2019-06-10T07:16:13.123Z,70
2019-06-10T07:17:12.570Z,65
2019-06-10T07:18:09.785Z,55
2019-06-10T07:19:08.472Z,50
2019-06-10T07:20:07.020Z,50
2019-06-10T07:21:05.625Z,50
2019-06-10T07:22:11.667Z,50
2019-06-10T07:23:02.888Z,55
2019-06-10T07:24:03.187Z,55
2019-06-10T07:25:05.822Z,60
2019-06-10T07:25:58.990Z,60
2019-06-10T07:26:57.518Z,55
2019-06-10T07:27:56.165Z,55
2019-06-10T07:28:54.800Z,55
2019-06-10T07:29:53.343Z,55
2019-06-10T07:30:55.198Z,50
2019-06-10T07:31:53.434Z,50
2019-06-10T07:32:52.788Z,45
2019-06-10T07:33:52.321Z,45
2019-06-10T07:34:48.435Z,50
2019-06-10T07:35:47.050Z,50
2019-06-10T07:36:45.662Z,50
2019-06-10T07:37:45.816Z,50
2019-06-10T07:38:48.561Z,50
2019-06-10T07:39:44.960Z,50
2019-06-10T07:40:45.293Z,50
2019-06-10T07:41:41.932Z,50
2019-06-10T07:42:41.453Z,50
2019-06-10T07:43:42.195Z,50
2019-06-10T07:44:37.549Z,55
2019-06-10T07:45:37.671Z,55
2019-06-10T07:46:35.107Z,55
2019-06-10T07:47:34.104Z,55
2019-06-10T07:48:35.240Z,55
2019-06-10T07:49:33.844Z,55
2019-06-10T07:50:32.901Z,55
2019-06-10T07:51:29.383Z,55
2019-06-10T07:52:27.908Z,55
2019-06-10T07:53:26.585Z,55
2019-06-10T07:54:25.147Z,50
2019-06-10T07:55:23.685Z,50
2019-06-10T07:56:23.226Z,50
2019-06-10T07:57:22.560Z,50
2019-06-10T07:58:19.573Z,50
2019-06-10T07:59:18.228Z,55
2019-06-10T08:00:16.802Z,55
2019-06-10T08:01:15.320Z,55
2019-06-10T08:02:16.031Z,55
2019-06-10T08:03:14.626Z,50
2019-06-10T08:04:16.325Z,50
2019-06-10T08:05:14.933Z,50
2019-06-10T08:06:13.450Z,55
2019-06-10T08:07:12.528Z,65
2019-06-10T08:08:12.910Z,65
2019-06-10T08:09:09.385Z,65
2019-06-10T08:10:08.048Z,65
2019-06-10T08:11:06.621Z,70
2019-06-10T08:12:05.976Z,80
2019-06-10T08:13:03.815Z,85
2019-06-10T08:14:04.522Z,90
2019-06-10T08:15:02.674Z,95
2019-06-10T08:16:02.698Z,100
2019-06-10T08:16:59.158Z,100
2019-06-10T08:17:57.710Z,100
2019-06-10T08:19:21.738Z,100
2019-06-10T08:19:54.905Z,105
2019-06-10T08:20:53.433Z,110
2019-06-10T08:21:53.620Z,120
2019-06-10T08:22:57.055Z,140
2019-06-10T08:23:49.419Z,155
2019-06-10T08:24:48.430Z,170
2019-06-10T08:25:52.228Z,180
2019-06-10T08:26:45.659Z,190
2019-06-10T08:27:45.913Z,200
2019-06-10T08:28:46.110Z,225
2019-06-10T08:29:44.326Z,240
2019-06-10T08:30:40.247Z,255
2019-06-10T08:31:38.777Z,255
2019-06-10T08:32:37.881Z,255
2019-06-10T08:33:35.289Z,250
2019-06-10T08:34:33.928Z,245
2019-06-10T08:35:39.084Z,235
2019-06-10T08:36:33.279Z,240
2019-06-10T08:37:29.888Z,240
2019-06-10T08:38:28.492Z,245
2019-06-10T08:39:27.126Z,250
2019-06-10T08:40:25.678Z,260
2019-06-10T08:41:24.243Z,265
2019-06-10T08:42:23.379Z,270
2019-06-10T08:43:22.569Z,275
2019-06-10T08:44:19.903Z,270
2019-06-10T08:45:18.539Z,245
2019-06-10T08:46:17.080Z,230
2019-06-10T08:47:15.671Z,220
2019-06-10T08:48:14.360Z,215
2019-06-10T08:49:12.964Z,215
2019-06-10T08:50:12.920Z,215
2019-06-10T08:51:12.437Z,215
2019-06-10T08:52:09.714Z,210
2019-06-10T08:53:14.587Z,220
2019-06-10T08:54:06.905Z,205
2019-06-10T08:55:05.456Z,215
2019-06-10T08:56:04.002Z,220
2019-06-10T08:57:03.667Z,230
2019-06-10T08:58:02.726Z,215
2019-06-10T08:59:03.054Z,220
2019-06-10T08:59:59.105Z,225
2019-06-10T09:00:57.797Z,225
2019-06-10T09:01:57.110Z,225
2019-06-10T09:02:55.051Z,230
2019-06-10T09:03:53.901Z,230
2019-06-10T09:04:53.500Z,230
2019-06-10T09:05:53.873Z,230
2019-06-10T09:06:51.427Z,230
2019-06-10T09:07:50.945Z,230
2019-06-10T09:08:49.858Z,225
2019-06-10T09:09:48.307Z,220
2019-06-10T09:10:46.133Z,210
2019-06-10T09:11:44.260Z,205
2019-06-10T09:12:45.242Z,185
2019-06-10T09:13:41.458Z,165
2019-06-10T09:14:38.725Z,150
2019-06-10T09:15:37.204Z,145
2019-06-10T09:16:35.762Z,130
2019-06-10T09:17:34.338Z,120
2019-06-10T09:18:33.641Z,110
2019-06-10T09:19:33.161Z,100
2019-06-10T09:20:30.053Z,100
2019-06-10T09:21:28.746Z,110
2019-06-10T09:22:27.340Z,125
2019-06-10T09:23:26.016Z,150
2019-06-10T09:24:24.730Z,180
2019-06-10T09:25:23.300Z,210
2019-06-10T09:26:22.858Z,220
2019-06-10T09:27:23.744Z,260
2019-06-10T09:28:18.940Z,270
2019-06-10T09:29:17.462Z,270
2019-06-10T09:30:15.989Z,265
2019-06-10T09:31:14.560Z,255
2019-06-10T09:32:13.096Z,265
2019-06-10T09:33:12.961Z,265
2019-06-10T09:34:12.713Z,255
2019-06-10T09:35:09.162Z,240
2019-06-10T09:36:07.737Z,245
2019-06-10T09:37:06.612Z,245
2019-06-10T09:38:05.150Z,240
2019-06-10T09:39:04.035Z,240
2019-06-10T09:40:03.338Z,230
2019-06-10T09:41:05.652Z,220
2019-06-10T09:42:03.309Z,180
2019-06-10T09:42:58.571Z,170
2019-06-10T09:43:57.338Z,165
2019-06-10T09:44:55.904Z,165
2019-06-10T09:45:56.199Z,180
2019-06-10T09:46:55.919Z,195
2019-06-10T09:47:57.998Z,210
2019-06-10T09:48:53.407Z,215
2019-06-10T09:49:50.465Z,220
2019-06-10T09:50:51.213Z,230
2019-06-10T09:51:49.872Z,230
2019-06-10T09:52:48.309Z,230
2019-06-10T09:53:50.434Z,235
2019-06-10T09:54:46.895Z,245
2019-06-10T09:55:41.474Z,245
2019-06-10T09:56:38.926Z,250
2019-06-10T09:57:37.465Z,250
2019-06-10T09:58:36.008Z,250
2019-06-10T09:59:34.599Z,250
2019-06-10T10:00:33.252Z,250
2019-06-10T10:01:32.623Z,260
2019-06-10T10:02:33.068Z,265
2019-06-10T10:03:29.021Z,260
2019-06-10T10:04:27.556Z,260
2019-06-10T10:05:26.127Z,275
2019-06-10T10:06:24.941Z,255
2019-06-10T10:07:23.511Z,255
2019-06-10T10:08:23.258Z,275
2019-06-10T10:09:22.665Z,310
2019-06-10T10:10:19.172Z,300
2019-06-10T10:11:17.937Z,250
2019-06-10T10:12:16.684Z,210
2019-06-10T10:13:15.257Z,185
2019-06-10T10:14:15.886Z,165
2019-06-10T10:15:24.144Z,150
2019-06-10T10:16:13.103Z,145
2019-06-10T10:17:12.659Z,135
2019-06-10T10:18:08.600Z,130
2019-06-10T10:19:07.216Z,125
2019-06-10T10:20:05.903Z,125
2019-06-10T10:21:04.700Z,120
2019-06-10T10:22:03.195Z,120
2019-06-10T10:23:02.637Z,115
2019-06-10T10:24:07.637Z,115
2019-06-10T10:24:58.880Z,110
2019-06-10T10:25:57.454Z,110
2019-06-10T10:26:57.974Z,110
2019-06-10T10:27:57.542Z,120
2019-06-10T10:28:56.876Z,135
2019-06-10T10:29:56.711Z,140
2019-06-10T10:30:55.308Z,135
2019-06-10T10:31:52.021Z,135
2019-06-10T10:32:50.395Z,135
2019-06-10T10:33:46.801Z,135
2019-06-10T10:34:46.928Z,140
2019-06-10T10:35:45.998Z,140
2019-06-10T10:36:45.314Z,155
2019-06-10T10:37:42.380Z,165
2019-06-10T10:38:40.097Z,185
2019-06-10T10:39:38.668Z,210
2019-06-10T10:40:37.254Z,230
2019-06-10T10:41:35.893Z,240
2019-06-10T10:42:44.776Z,250
2019-06-10T10:43:37.400Z,255
2019-06-10T10:44:31.975Z,255
2019-06-10T10:45:30.337Z,255
2019-06-10T10:46:29.111Z,255
2019-06-10T10:47:27.851Z,250
2019-06-10T10:48:26.220Z,245
2019-06-10T10:49:24.764Z,240
2019-06-10T10:50:23.338Z,240
2019-06-10T10:51:23.049Z,235
2019-06-10T10:52:22.350Z,235
2019-06-10T10:53:19.008Z,230
2019-06-10T10:54:29.213Z,225
2019-06-10T10:55:16.404Z,225
2019-06-10T10:56:15.017Z,215
2019-06-10T10:57:13.599Z,210
2019-06-10T10:58:12.839Z,200
2019-06-10T10:59:12.813Z,195
2019-06-10T11:00:12.253Z,180
2019-06-10T11:01:08.417Z,165
2019-06-10T11:02:07.217Z,155
2019-06-10T11:03:06.203Z,145
2019-06-10T11:04:04.400Z,135
2019-06-10T11:05:02.950Z,145
2019-06-10T11:06:01.524Z,165
2019-06-10T11:07:01.130Z,170
2019-06-10T11:07:58.686Z,180
2019-06-10T11:08:57.837Z,200
2019-06-10T11:09:56.892Z,180
2019-06-10T11:10:59.199Z,155
2019-06-10T11:11:54.987Z,140
2019-06-10T11:12:54.055Z,125
2019-06-10T11:13:54.741Z,120
2019-06-10T11:14:49.614Z,115
2019-06-10T11:15:49.058Z,120
2019-06-10T11:16:47.261Z,120
2019-06-10T11:17:47.169Z,125
2019-06-10T11:18:45.172Z,140
2019-06-10T11:19:43.398Z,145
2019-06-10T11:20:42.092Z,140
2019-06-10T11:21:42.595Z,130
2019-06-10T11:22:39.405Z,140
2019-06-10T11:23:38.112Z,150
2019-06-10T11:24:41.020Z,150
2019-06-10T11:25:35.467Z,145
2019-06-10T11:26:34.163Z,140
2019-06-10T11:27:33.233Z,155
2019-06-10T11:28:32.083Z,210
2019-06-10T11:29:29.897Z,280
2019-06-10T11:30:28.491Z,330
2019-06-10T11:31:28.261Z,330
2019-06-10T11:32:26.860Z,325
2019-06-10T11:33:25.433Z,300
2019-06-10T11:34:24.042Z,290
2019-06-10T11:35:22.784Z,270
2019-06-10T11:36:22.729Z,260
2019-06-10T11:37:19.924Z,235
2019-06-10T11:38:18.476Z,225
2019-06-10T11:39:17.175Z,210
2019-06-10T11:40:15.892Z,200
2019-06-10T11:41:14.485Z,195
2019-06-10T11:42:13.366Z,200
2019-06-10T11:43:13.037Z,200
2019-06-10T11:44:10.508Z,200
2019-06-10T11:45:09.107Z,195
2019-06-10T11:46:08.176Z,200
2019-06-10T11:47:06.338Z,215
2019-06-10T11:48:04.956Z,225
2019-06-10T11:49:04.042Z,235
2019-06-10T11:50:03.410Z,235
2019-06-10T11:51:01.780Z,245
2019-06-10T11:51:59.716Z,240
2019-06-10T11:53:00.599Z,235
2019-06-10T11:53:57.596Z,235
2019-06-10T11:55:08.797Z,235
2019-06-10T11:55:53.810Z,215
2019-06-10T11:56:54.350Z,210
2019-06-10T11:57:53.273Z,220
2019-06-10T11:58:49.987Z,215
2019-06-10T11:59:48.135Z,215
2019-06-10T12:00:46.742Z,200
2019-06-10T12:01:45.306Z,190
2019-06-10T12:02:44.871Z,185
2019-06-10T12:03:43.263Z,190
2019-06-10T12:04:41.204Z,205
2019-06-10T12:05:39.760Z,210
2019-06-10T12:06:38.420Z,200
2019-06-10T12:07:37.023Z,185
2019-06-10T12:08:35.764Z,180
2019-06-10T12:09:34.519Z,180
2019-06-10T12:10:33.222Z,185
2019-06-10T12:11:34.205Z,185
2019-06-10T12:12:32.880Z,185
2019-06-10T12:13:28.948Z,185
2019-06-10T12:14:27.599Z,185
2019-06-10T12:15:26.209Z,185
2019-06-10T12:17:40.363Z,170
2019-06-10T12:18:22.866Z,150
2019-06-10T12:19:21.266Z,140
2019-06-10T12:20:19.105Z,120
2019-06-10T12:21:17.682Z,105
2019-06-10T12:24:02.271Z,125
2019-06-10T12:25:24.779Z,145
2019-06-10T12:25:59.271Z,150
2019-06-10T12:26:58.345Z,155
2019-06-10T12:27:55.677Z,150
2019-06-10T12:28:54.935Z,135
2019-06-10T12:29:54.055Z,105
2019-06-10T12:30:50.991Z,85
2019-06-10T12:31:48.714Z,70
2019-06-10T12:32:47.265Z,60
2019-06-10T12:33:45.835Z,55
2019-06-10T12:34:46.255Z,55
2019-06-10T12:35:43.250Z,50
2019-06-10T12:36:41.785Z,50
2019-06-10T12:37:42.487Z,45
2019-06-10T12:38:38.949Z,40
2019-06-10T12:39:37.514Z,35
2019-06-10T12:40:36.184Z,35
2019-06-10T12:41:34.767Z,35
2019-06-10T12:42:33.387Z,35
2019-06-10T12:43:32.553Z,35
2019-06-10T12:44:31.235Z,35
2019-06-10T12:45:29.127Z,35
2019-06-10T12:46:27.799Z,35
2019-06-10T12:47:26.384Z,35
2019-06-10T12:48:24.993Z,40
2019-06-10T12:49:23.586Z,40
2019-06-10T12:50:22.411Z,45
2019-06-10T12:51:22.677Z,45
2019-06-10T12:52:19.559Z,45
2019-06-10T12:53:18.236Z,50
2019-06-10T12:54:16.828Z,55
2019-06-10T12:55:15.431Z,55
2019-06-10T12:56:14.846Z,60
2019-06-10T12:57:14.321Z,60
2019-06-10T12:58:11.108Z,60
2019-06-10T12:59:10.147Z,65
2019-06-10T13:00:19.165Z,70
2019-06-10T13:01:07.974Z,70
2019-06-10T13:02:15.033Z,75
2019-06-10T13:03:05.363Z,80
2019-06-10T13:04:07.029Z,80
2019-06-10T13:05:04.552Z,75
2019-06-10T13:06:02.870Z,70
2019-06-10T13:07:00.232Z,70
2019-06-10T13:07:57.583Z,70
2019-06-10T13:08:56.646Z,70
2019-06-10T13:09:55.520Z,70
2019-06-10T13:13:33.492Z,75
2019-06-10T13:14:32.654Z,80
2019-06-10T13:15:32.816Z,85
2019-06-10T13:16:29.458Z,90
2019-06-10T13:17:28.137Z,100
2019-06-10T13:41:37.724Z,200
2019-06-10T13:42:36.841Z,200
2019-06-10T13:43:34.505Z,200
2019-06-10T13:44:33.066Z,200
2019-06-10T13:45:33.200Z,190
2019-06-10T13:46:30.364Z,175
2019-06-10T13:47:29.403Z,160
2019-06-10T13:48:28.103Z,150
2019-06-10T13:49:26.918Z,145
2019-06-10T13:50:25.839Z,130
2019-06-10T13:51:24.240Z,120
2019-06-10T13:52:23.406Z,120
2019-06-10T13:53:21.448Z,120
2019-06-10T13:54:22.419Z,120
2019-06-10T13:55:18.847Z,115
2019-06-10T13:56:39.444Z,110
2019-06-10T13:57:16.046Z,100
2019-06-10T13:58:14.870Z,95
2019-06-10T13:59:14.200Z,85
2019-06-10T14:00:14.520Z,75
2019-06-10T14:01:19.736Z,65
2019-06-10T14:02:11.524Z,60
2019-06-10T14:03:10.177Z,55
2019-06-10T14:04:12.437Z,55
2019-06-10T14:05:08.194Z,55
2019-06-10T14:06:20.154Z,55
2019-06-10T14:07:07.183Z,50
2019-06-10T14:10:42.905Z,50
2019-06-10T14:11:42.281Z,50
2019-06-10T14:12:38.685Z,50
2019-06-10T14:13:37.432Z,55
2019-06-10T14:14:36.007Z,60
2019-06-10T14:15:34.585Z,70
2019-06-10T14:16:33.982Z,75
2019-06-10T14:17:32.870Z,85
2019-06-10T14:18:32.628Z,85
2019-06-10T14:19:29.076Z,90
2019-06-10T14:20:27.734Z,95
2019-06-10T14:21:26.628Z,95
2019-06-10T14:22:25.049Z,100
2019-06-10T14:23:23.652Z,100
2019-06-10T14:24:22.902Z,100
2019-06-10T14:25:23.192Z,100
2019-06-10T14:26:34.288Z,95
2019-06-10T14:27:21.255Z,100
2019-06-10T14:28:35.681Z,100
2019-06-10T14:29:16.178Z,95
2019-06-10T14:30:15.492Z,100
2019-06-10T14:31:33.521Z,105
2019-06-10T14:32:13.921Z,105
2019-06-10T14:33:09.941Z,100
2019-06-10T14:34:09.586Z,105
2019-06-10T14:35:09.878Z,105
2019-06-10T14:36:07.160Z,105
2019-06-10T14:37:05.783Z,110
2019-06-10T14:38:04.785Z,100
2019-06-10T14:39:01.714Z,95
2019-06-10T14:41:43.001Z,95
2019-06-10T14:42:42.862Z,100
2019-06-10T14:45:23.022Z,105
2019-06-10T14:46:19.456Z,110
2019-06-10T14:48:42.716Z,105
2019-06-10T14:49:42.457Z,105
2019-06-10T14:50:39.871Z,105
2019-06-10T14:51:38.766Z,100
2019-06-10T14:52:37.342Z,100
2019-06-10T14:53:36.109Z,95
2019-06-10T14:54:34.761Z,95
2019-06-10T14:55:33.959Z,90
2019-06-10T14:56:33.269Z,85
2019-06-10T14:57:33.417Z,80
2019-06-10T14:58:30.083Z,70
2019-06-10T14:59:28.771Z,65
2019-06-10T15:00:27.316Z,65
2019-06-10T15:01:26.198Z,65
2019-06-10T15:02:24.783Z,70
2019-06-10T15:03:23.319Z,75
2019-06-10T15:04:22.437Z,80
2019-06-10T15:05:23.075Z,85
2019-06-10T15:06:19.955Z,85